Time;durP1;ratioP1;P1;durP2;ratioP2;P2;SDS_P1;SDS_P2;PMS_P1;PMS_P2;Temp;Humidity;BMP_temperature;BMP_pressure;BME280_temperature;BME280_humidity;BME280_pressure;Samples;Min_cycle;Max_cycle;Signal;HPM_P1;HPM_P2
2022/12/12 00:03:25;;;;;;;21.15;12.02;;;;;;;6.46;97.92;100586.84;10335709;28;20406;-70
2022/12/12 00:08:26;;;;;;;31.73;12.93;;;;;;;6.38;98.76;100569.03;10334206;28;20034;-71
2022/12/12 00:13:26;;;;;;;22.73;11.90;;;;;;;5.93;98.45;100490.34;10334652;28;20486;-70
2022/12/12 00:18:27;;;;;;;21.85;10.75;;;;;;;6.50;98.96;100582.13;10333331;28;20046;-71
2022/12/12 00:23:28;;;;;;;25.48;12.95;;;;;;;6.47;98.21;100579.75;10334535;28;20485;-71
2022/12/12 00:28:29;;;;;;;21.42;11.55;;;;;;;6.46;98.29;100570.16;10334739;28;20507;-70
2022/12/12 00:33:30;;;;;;;21.40;11.65;;;;;;;6.42;98.84;100563.50;10334334;28;20122;-71
2022/12/12 00:38:31;;;;;;;20.02;11.82;;;;;;;6.47;98.78;100562.13;10316294;28;20535;-71
2022/12/12 00:43:31;;;;;;;24.65;12.75;;;;;;;6.43;98.77;100559.88;10333070;28;20065;-71
2022/12/12 00:48:32;;;;;;;21.48;12.65;;;;;;;6.28;98.29;100528.63;10332580;28;20085;-71
2022/12/12 00:53:34;;;;;;;22.85;12.90;;;;;;;6.05;98.97;100495.53;10333410;28;20049;-71
2022/12/12 00:58:35;;;;;;;23.60;12.65;;;;;;;6.42;98.83;100548.50;10333066;28;20050;-70
2022/12/12 01:03:38;;;;;;;23.27;13.27;;;;;;;6.40;99.14;100540.72;10332383;28;20050;-71
2022/12/12 01:08:40;;;;;;;23.73;13.88;;;;;;;6.32;98.83;100530.00;10314920;28;20053;-71
2022/12/12 01:13:42;;;;;;;27.55;13.70;;;;;;;6.41;98.69;100536.28;10315556;28;20401;-71
2022/12/12 01:18:43;;;;;;;24.17;13.75;;;;;;;6.24;99.30;100516.66;10332633;28;20049;-71
2022/12/12 01:23:44;;;;;;;30.00;15.45;;;;;;;6.36;99.62;100538.47;10314370;28;20402;-71
2022/12/12 01:28:45;;;;;;;23.83;14.88;;;;;;;6.36;99.47;100536.66;10332384;28;20038;-71
2022/12/12 01:33:46;;;;;;;34.53;15.52;;;;;;;5.88;98.35;100465.31;10331603;28;20042;-71
2022/12/12 01:38:49;;;;;;;31.05;15.18;;;;;;;5.82;98.41;100450.88;10332632;28;20564;-70
2022/12/12 01:43:50;;;;;;;24.58;14.52;;;;;;;6.20;98.28;100531.09;10331294;28;20042;-71
2022/12/12 01:49:02;;;;;;;29.92;15.20;;;;;;;6.32;97.73;100553.75;10331805;28;20141;-72
2022/12/12 01:54:10;;;;;;;27.50;16.58;;;;;;;6.20;97.66;100539.00;10331236;28;20113;-71
2022/12/12 01:59:15;;;;;;;28.42;15.07;;;;;;;6.23;97.62;100546.66;10331090;28;20125;-72
2022/12/12 02:04:16;;;;;;;;;;;;;;;6.28;96.92;100541.81;10339171;28;20112;-71
2022/12/12 02:09:19;;;;;;;29.73;16.08;;;;;;;6.16;97.98;100548.13;10335518;28;19996;-72
2022/12/12 02:14:32;;;;;;;25.92;15.77;;;;;;;6.16;98.30;100548.13;10331941;28;20053;-72
2022/12/12 02:20:11;;;;;;;29.48;16.02;;;;;;;6.17;97.77;100534.00;10339063;28;20065;-71
2022/12/12 02:25:36;;;;;;;34.35;17.65;;;;;;;6.15;97.82;100543.84;10336602;28;20038;-73
2022/12/12 02:30:56;;;;;;;25.25;14.82;;;;;;;6.14;97.90;100536.91;10339300;28;20405;-72
2022/12/12 02:36:21;;;;;;;31.60;15.73;;;;;;;6.18;97.20;100536.50;10321379;28;20488;-72
2022/12/12 02:41:53;;;;;;;29.10;15.20;;;;;;;5.69;97.65;100452.94;10337570;28;20051;-72
2022/12/12 02:47:07;;;;;;;27.80;14.82;;;;;;;6.05;97.59;100520.09;10337823;28;20058;-72
2022/12/12 02:52:09;;;;;;;27.27;14.57;;;;;;;5.88;97.83;100481.97;10320663;28;20069;-72
2022/12/12 02:57:36;;;;;;;26.73;13.73;;;;;;;6.20;97.75;100525.00;10337738;28;20438;-72
2022/12/12 03:07:45;;;;;;;26.48;13.95;;;;;;;6.17;97.71;100526.09;10332059;28;20062;-72
2022/12/12 03:08:34;;;;;;;27.75;14.98;;;;;;;6.17;98.85;100526.91;10336975;28;20038;-72
2022/12/12 03:13:44;;;;;;;31.85;14.82;;;;;;;5.53;97.99;100423.59;10336251;28;20042;-72
2022/12/12 03:18:54;;;;;;;36.08;15.45;;;;;;;5.22;98.40;100378.84;10336472;28;20078;-71
2022/12/12 03:24:01;;;;;;;28.80;15.38;;;;;;;6.14;98.51;100535.09;10294575;28;20049;-73
2022/12/12 03:29:10;;;;;;;30.92;16.40;;;;;;;6.18;98.27;100535.66;10329490;28;20134;-69
2022/12/12 03:34:36;;;;;;;27.27;15.73;;;;;;;6.15;97.92;100528.03;10336899;28;20442;-68
2022/12/12 03:39:43;;;;;;;28.20;14.85;;;;;;;6.24;97.70;100524.56;10336138;28;20521;-68
2022/12/12 03:44:48;;;;;;;24.63;14.60;;;;;;;6.22;98.24;100528.31;10335731;28;20034;-69
2022/12/12 03:50:01;;;;;;;27.23;14.38;;;;;;;5.76;97.68;100440.03;10336351;28;20053;-70
2022/12/12 03:55:15;;;;;;;34.00;14.25;;;;;;;6.14;97.57;100500.81;10334965;28;20140;-69
2022/12/12 04:00:17;;;;;;;26.40;14.23;;;;;;;5.76;97.06;100437.41;10335286;28;20104;-68
2022/12/12 04:05:34;;;;;;;25.58;14.13;;;;;;;5.72;97.58;100423.66;10334359;28;20077;-69
2022/12/12 04:16:12;;;;;;;28.75;14.45;;;;;;;6.33;97.91;100521.13;10334152;28;20504;-70
2022/12/12 04:27:19;;;;;;;34.63;14.20;;;;;;;6.32;96.95;100521.25;10334216;28;20124;-71
2022/12/12 04:32:46;;;;;;;;;;;;;;;6.42;96.30;100513.34;10334184;28;20045;-70
2022/12/12 04:37:51;;;;;;;27.98;13.55;;;;;;;6.34;96.45;100514.88;10315597;28;20355;-71
2022/12/12 04:43:07;;;;;;;27.30;13.35;;;;;;;6.28;95.98;100498.75;10331946;28;20149;-73
2022/12/12 04:48:13;;;;;;;28.73;14.15;;;;;;;6.36;96.27;100510.28;10333613;28;20058;-68
2022/12/12 04:53:17;;;;;;;32.70;14.80;;;;;;;6.32;97.15;100513.34;10333194;28;20046;-72
2022/12/12 04:58:18;;;;;;;29.73;14.00;;;;;;;6.37;96.96;100524.31;10332884;28;20042;-70
2022/12/12 05:03:35;;;;;;;25.67;14.07;;;;;;;6.39;97.29;100531.13;10333566;28;20482;-71
2022/12/12 05:08:45;;;;;;;19.92;12.63;;;;;;;6.26;96.87;100506.81;10332274;28;20053;-72
2022/12/12 05:13:47;;;;;;;26.48;13.80;;;;;;;6.40;97.30;100522.25;10332258;28;20038;-71
2022/12/12 05:18:48;;;;;;;27.58;14.25;;;;;;;6.34;97.73;100519.31;10332251;28;20047;-71
2022/12/12 05:23:49;;;;;;;26.52;14.40;;;;;;;6.44;97.62;100524.63;10331682;28;20046;-72
2022/12/12 05:28:50;;;;;;;32.83;13.90;;;;;;;6.48;97.32;100531.28;10331625;28;20049;-71
2022/12/12 05:33:51;;;;;;;20.15;12.90;;;;;;;6.49;97.45;100522.38;10331956;28;20042;-73
2022/12/12 05:38:52;;;;;;;32.47;14.20;;;;;;;6.50;97.34;100534.63;10330756;28;20513;-73
2022/12/12 05:43:53;;;;;;;28.17;13.75;;;;;;;6.09;97.00;100460.00;10332236;28;20038;-73
2022/12/12 05:48:54;;;;;;;33.40;12.48;;;;;;;6.53;96.88;100537.00;10332075;28;20559;-73
2022/12/12 05:53:55;;;;;;;24.88;13.05;;;;;;;6.53;96.71;100529.06;10331170;28;20038;-73
2022/12/12 05:58:56;;;;;;;24.17;12.43;;;;;;;6.02;96.38;100443.88;10330931;28;20046;-73
2022/12/12 06:03:56;;;;;;;26.98;13.23;;;;;;;6.59;96.49;100526.72;10331210;28;20034;-71
2022/12/12 06:08:57;;;;;;;27.60;13.18;;;;;;;6.53;96.75;100521.16;10331337;28;20042;-72
2022/12/12 06:13:58;;;;;;;25.40;12.60;;;;;;;6.38;95.73;100511.00;10330719;28;20096;-71
2022/12/12 06:18:59;;;;;;;30.08;12.60;;;;;;;6.35;95.27;100490.16;10330586;28;20101;-72
2022/12/12 06:23:59;;;;;;;24.88;12.25;;;;;;;6.60;95.29;100536.28;10330926;28;20034;-71
2022/12/12 06:29:00;;;;;;;24.50;13.82;;;;;;;6.49;95.51;100523.25;10312975;28;20042;-71
2022/12/12 06:34:01;;;;;;;32.05;13.10;;;;;;;6.61;95.88;100537.97;10330380;28;20125;-71
2022/12/12 06:39:02;;;;;;;26.40;13.05;;;;;;;6.52;96.42;100525.59;10331126;28;20093;-71
2022/12/12 06:44:03;;;;;;;26.20;13.73;;;;;;;6.04;96.09;100444.59;10330614;28;20047;-72
2022/12/12 06:49:08;;;;;;;26.63;12.48;;;;;;;6.68;96.31;100542.69;10334861;28;20128;-73
2022/12/12 06:54:14;;;;;;;27.08;11.82;;;;;;;6.70;96.25;100548.66;10337261;28;20038;-72
2022/12/12 06:59:16;;;;;;;28.13;12.32;;;;;;;6.72;96.03;100546.72;10336936;28;20053;-71
2022/12/12 07:04:17;;;;;;;29.20;11.70;;;;;;;6.68;95.99;100522.41;10336978;28;20038;-71
2022/12/12 07:09:18;;;;;;;23.95;10.70;;;;;;;6.38;95.57;100468.78;10336929;28;20073;-71
2022/12/12 07:14:19;;;;;;;23.73;10.23;;;;;;;6.85;95.89;100526.19;10337154;28;20086;-71
2022/12/12 07:19:21;;;;;;;26.15;11.02;;;;;;;6.88;95.88;100530.31;10336282;28;20085;-72
2022/12/12 07:24:22;;;;;;;17.08;8.52;;;;;;;6.87;95.56;100521.56;10336225;28;20038;-72
2022/12/12 07:29:23;;;;;;;20.67;9.57;;;;;;;6.85;94.99;100513.81;10319007;28;20038;-71
2022/12/12 07:34:24;;;;;;;21.67;9.95;;;;;;;6.96;95.08;100531.28;10336064;28;20181;-71
2022/12/12 07:39:24;;;;;;;23.10;10.10;;;;;;;7.02;95.10;100514.06;10335476;28;20046;-72
2022/12/12 07:44:25;;;;;;;21.90;9.65;;;;;;;6.57;93.89;100444.19;10336040;28;20085;-72
2022/12/12 07:49:28;;;;;;;19.40;10.00;;;;;;;7.05;94.21;100508.50;10336105;28;20085;-72
2022/12/12 07:54:29;;;;;;;20.60;10.20;;;;;;;7.07;93.86;100510.03;10335588;28;20039;-72
2022/12/12 07:59:29;;;;;;;25.63;10.48;;;;;;;7.11;94.07;100493.88;10334412;28;20053;-72
2022/12/12 08:04:30;;;;;;;23.25;9.85;;;;;;;7.15;93.96;100477.63;10334679;28;20038;-71
2022/12/12 08:09:31;;;;;;;20.95;9.48;;;;;;;7.23;93.71;100484.81;10335118;28;20085;-72
2022/12/12 08:14:32;;;;;;;21.40;10.02;;;;;;;7.19;93.87;100470.25;10335232;28;20070;-72
2022/12/12 08:19:33;;;;;;;23.30;10.02;;;;;;;7.28;93.32;100462.28;10334809;28;20050;-71
2022/12/12 08:24:34;;;;;;;25.58;10.65;;;;;;;7.22;93.28;100431.16;10334374;28;20049;-71
2022/12/12 08:29:35;;;;;;;25.35;10.82;;;;;;;7.35;93.78;100440.56;10316862;28;20043;-71
2022/12/12 08:34:36;;;;;;;23.90;10.90;;;;;;;7.42;93.07;100436.34;10333669;28;20068;-71
2022/12/12 08:39:37;;;;;;;25.05;11.77;;;;;;;7.50;92.92;100434.66;10333364;28;20038;-72
2022/12/12 08:44:38;;;;;;;24.23;11.63;;;;;;;7.65;92.24;100436.81;10333810;28;20041;-71
2022/12/12 08:49:38;;;;;;;31.90;12.48;;;;;;;7.54;92.33;100409.59;10333657;28;20149;-72
2022/12/12 08:54:39;;;;;;;26.92;12.00;;;;;;;7.66;91.92;100417.34;10333337;28;20112;-72
2022/12/12 08:59:40;;;;;;;23.80;12.05;;;;;;;7.76;91.37;100415.47;10333336;28;20398;-72
2022/12/12 09:04:41;;;;;;;21.65;10.55;;;;;;;7.72;91.29;100383.22;10332869;28;20046;-72
2022/12/12 09:09:42;;;;;;;27.02;10.10;;;;;;;7.42;91.08;100323.56;10332728;28;20038;-71
2022/12/12 09:14:43;;;;;;;30.05;11.25;;;;;;;7.94;91.41;100403.09;10332706;28;20042;-73
2022/12/12 09:19:44;;;;;;;20.63;10.90;;;;;;;8.02;91.34;100394.44;10332708;28;20144;-72
2022/12/12 09:24:45;;;;;;;27.63;11.20;;;;;;;8.08;91.46;100393.00;10332329;28;20409;-72
2022/12/12 09:29:46;;;;;;;24.80;10.68;;;;;;;7.85;91.32;100337.88;10332152;28;20042;-72
2022/12/12 09:34:48;;;;;;;20.73;9.98;;;;;;;8.15;91.88;100375.53;10331932;28;20061;-72
2022/12/12 09:39:51;;;;;;;23.85;10.55;;;;;;;8.09;90.99;100347.03;10331778;28;20053;-72
2022/12/12 09:44:56;;;;;;;22.20;10.32;;;;;;;8.16;91.16;100362.13;10314032;28;20050;-72
2022/12/12 09:50:03;;;;;;;18.45;9.85;;;;;;;8.07;90.10;100320.72;10332208;28;20137;-71
2022/12/12 09:55:19;;;;;;;23.63;9.70;;;;;;;8.24;89.88;100341.03;10331681;28;20461;-72
2022/12/12 10:00:19;;;;;;;19.60;9.68;;;;;;;8.26;89.73;100326.84;10331567;28;20078;-72
2022/12/12 10:05:51;;;;;;;26.95;10.68;;;;;;;8.39;89.31;100343.16;10331401;28;20497;-72
2022/12/12 10:10:57;;;;;;;23.63;9.63;;;;;;;8.40;89.00;100334.22;10331438;28;20154;-71
2022/12/12 10:16:09;;;;;;;24.33;10.35;;;;;;;8.54;89.03;100354.88;10331143;28;20221;-71
2022/12/12 10:21:19;;;;;;;18.77;9.00;;;;;;;8.44;88.39;100338.25;10331871;28;20046;-72
2022/12/12 10:26:24;;;;;;;30.48;10.18;;;;;;;8.52;88.23;100334.81;10339038;28;20402;-73
2022/12/12 10:31:44;;;;;;;26.20;10.15;;;;;;;8.64;87.70;100347.63;10322308;28;20132;-71
2022/12/12 10:36:59;;;;;;;21.35;8.85;;;;;;;8.67;87.19;100359.75;10338811;28;20042;-71
2022/12/12 10:42:23;;;;;;;24.75;9.20;;;;;;;8.54;87.13;100344.28;10338426;28;20129;-71
2022/12/12 10:47:24;;;;;;;23.33;10.23;;;;;;;8.40;86.45;100300.66;10338059;28;20573;-72
2022/12/12 10:52:24;;;;;;;22.58;9.75;;;;;;;8.66;85.53;100369.50;10321052;28;20046;-71
2022/12/12 10:57:33;;;;;;;21.05;9.50;;;;;;;8.61;85.13;100339.19;10337760;28;20129;-71
2022/12/12 11:02:40;;;;;;;25.58;8.68;;;;;;;8.61;83.85;100344.47;10338178;28;20081;-71
2022/12/12 11:07:44;;;;;;;29.40;8.85;;;;;;;8.48;83.82;100314.94;10336912;28;20050;-70
2022/12/12 11:12:45;;;;;;;23.92;9.43;;;;;;;8.22;83.66;100276.84;10319759;28;20030;-71
2022/12/12 11:17:48;;;;;;;34.42;9.85;;;;;;;8.54;84.47;100338.97;10336797;28;20093;-71
2022/12/12 11:22:53;;;;;;;24.30;9.20;;;;;;;8.66;85.07;100347.50;10337157;28;20081;-71
2022/12/12 11:27:58;;;;;;;25.40;9.48;;;;;;;8.72;84.79;100346.88;10336152;28;20488;-71
2022/12/12 11:33:00;;;;;;;22.58;9.07;;;;;;;8.53;84.29;100310.84;10335830;28;20046;-70
2022/12/12 11:38:05;;;;;;;25.15;9.18;;;;;;;8.71;84.37;100341.75;10336796;28;20096;-71
2022/12/12 11:43:16;;;;;;;29.65;10.65;;;;;;;8.63;84.40;100332.75;10336285;28;20061;-70
2022/12/12 11:48:46;;;;;;;32.55;9.90;;;;;;;8.74;84.75;100341.44;10335610;28;20054;-71
2022/12/12 11:53:47;;;;;;;30.27;9.60;;;;;;;8.77;84.62;100327.88;10335840;28;20052;-71
2022/12/12 11:59:01;;;;;;;32.63;9.63;;;;;;;8.83;84.18;100330.72;10335062;28;20042;-71
2022/12/12 12:04:11;;;;;;;;;;;;;;;8.97;83.86;100326.66;10336056;28;20050;-71
2022/12/12 12:09:32;;;;;;;20.42;8.75;;;;;;;8.85;84.16;100346.44;10336104;28;19941;-70
2022/12/12 12:14:58;;;;;;;22.50;8.82;;;;;;;8.84;84.86;100360.69;10331517;28;20046;-71
2022/12/12 12:20:17;;;;;;;30.33;9.20;;;;;;;8.82;84.80;100349.41;10332334;28;20050;-71
2022/12/12 12:25:38;;;;;;;40.42;9.63;;;;;;;8.74;84.71;100352.03;10333661;28;20124;-71
2022/12/12 12:31:17;;;;;;;31.20;9.82;;;;;;;8.78;85.06;100371.91;10334416;28;20038;-71
2022/12/12 12:36:22;;;;;;;28.63;9.13;;;;;;;8.64;85.28;100349.47;10290798;28;20046;-71
2022/12/12 12:41:58;;;;;;;31.40;8.40;;;;;;;8.71;85.51;100365.59;10333742;28;20046;-72
2022/12/12 12:47:25;;;;;;;24.00;9.00;;;;;;;8.64;85.90;100363.53;10333137;28;20132;-72
2022/12/12 12:52:39;;;;;;;33.15;9.85;;;;;;;8.36;86.00;100330.22;10332383;28;20050;-71
2022/12/12 12:57:43;;;;;;;17.25;8.38;;;;;;;8.45;85.96;100351.31;10332141;28;20038;-71
2022/12/12 13:02:50;;;;;;;;;;;;;;;8.50;85.17;100356.16;10333755;28;20077;-71
2022/12/12 13:08:11;;;;;;;28.35;8.95;;;;;;;8.32;85.48;100364.09;10331973;28;19914;-71
2022/12/12 13:13:38;;;;;;;28.70;8.73;;;;;;;8.23;86.40;100357.91;10332123;28;20047;-71
2022/12/12 13:18:42;;;;;;;38.67;9.40;;;;;;;7.50;86.13;100246.97;10331221;28;20053;-73
2022/12/12 13:23:58;;;;;;;27.58;9.07;;;;;;;8.07;86.33;100349.81;10331751;28;20042;-71
2022/12/12 13:29:08;;;;;;;23.85;9.57;;;;;;;7.97;86.95;100352.53;10330860;28;20058;-71
2022/12/12 13:34:18;;;;;;;25.35;9.57;;;;;;;7.49;88.04;100292.06;10325672;28;20520;-72
2022/12/12 13:39:35;;;;;;;34.20;10.52;;;;;;;7.49;88.82;100302.66;10318842;28;20417;-71
2022/12/12 13:44:47;;;;;;;26.55;9.82;;;;;;;7.72;89.39;100362.06;10314526;28;20038;-72
2022/12/12 13:49:54;;;;;;;25.73;8.65;;;;;;;7.66;89.08;100377.69;10332267;28;20065;-71
2022/12/12 13:55:16;;;;;;;30.45;9.38;;;;;;;7.59;89.53;100393.28;10331121;28;20034;-72
2022/12/12 14:00:19;;;;;;;22.42;9.18;;;;;;;7.55;89.60;100373.41;10336457;28;20042;-72
2022/12/12 14:05:40;;;;;;;26.35;9.95;;;;;;;7.44;89.74;100355.09;10339487;28;20042;-70
2022/12/12 14:10:44;;;;;;;30.92;9.27;;;;;;;7.50;89.96;100373.84;10332867;28;20049;-73
2022/12/12 14:15:47;;;;;;;23.45;9.23;;;;;;;7.45;90.49;100380.56;10323980;28;20542;-73
2022/12/12 14:20:59;;;;;;;34.67;10.18;;;;;;;7.22;91.04;100338.66;10321831;28;20054;-74
2022/12/12 14:26:00;;;;;;;29.55;10.75;;;;;;;7.19;90.82;100340.78;10328495;28;20061;-72
2022/12/12 14:31:14;;;;;;;25.02;10.25;;;;;;;7.30;91.91;100378.41;10338297;28;20101;-73
2022/12/12 14:36:33;;;;;;;26.73;10.55;;;;;;;7.22;91.47;100378.31;10311581;28;20031;-73
2022/12/12 14:41:37;;;;;;;21.95;9.70;;;;;;;6.25;91.88;100222.03;10297657;28;20577;-72
2022/12/12 14:46:41;;;;;;;19.75;9.50;;;;;;;7.13;92.15;100365.97;10313885;28;20487;-73
2022/12/12 14:51:45;;;;;;;21.48;9.73;;;;;;;6.72;92.28;100298.56;10338779;28;20502;-73
2022/12/12 14:57:06;;;;;;;29.45;10.32;;;;;;;7.14;93.22;100362.34;10337214;28;20038;-72
2022/12/12 15:02:28;;;;;;;33.67;10.63;;;;;;;7.06;93.24;100360.44;10321927;28;20410;-73
2022/12/12 15:07:39;;;;;;;36.38;10.82;;;;;;;6.53;93.38;100273.06;10319069;28;20082;-72
2022/12/12 15:12:43;;;;;;;18.80;9.27;;;;;;;6.72;92.87;100306.47;10336669;28;20042;-73
2022/12/12 15:17:49;;;;;;;20.30;10.00;;;;;;;7.01;93.05;100360.03;10337231;28;20045;-72
2022/12/12 15:22:57;;;;;;;20.08;9.75;;;;;;;6.46;93.11;100264.03;10337370;28;20102;-72
2022/12/12 15:28:00;;;;;;;20.90;10.32;;;;;;;6.94;93.45;100348.41;10336242;28;20046;-72
2022/12/12 15:33:03;;;;;;;18.38;9.85;;;;;;;6.86;92.91;100338.53;10335876;28;20562;-72
2022/12/12 15:38:11;;;;;;;24.43;10.37;;;;;;;6.91;92.99;100353.97;10336393;28;20513;-73
2022/12/12 15:43:16;;;;;;;24.48;10.23;;;;;;;6.86;93.24;100349.09;10335731;28;20112;-79
2022/12/12 15:48:18;;;;;;;19.85;10.57;;;;;;;6.46;93.80;100295.72;10316525;28;20093;-76
2022/12/12 15:53:34;;;;;;;21.85;9.18;;;;;;;6.81;93.79;100351.31;10335355;28;20065;-78
2022/12/12 15:58:47;;;;;;;32.63;10.23;;;;;;;6.76;93.90;100360.66;10335931;28;20077;-76
2022/12/12 16:04:03;;;;;;;18.02;10.00;;;;;;;6.65;93.85;100337.91;10331658;28;20050;-76
2022/12/12 16:09:10;;;;;;;21.05;10.55;;;;;;;6.46;93.70;100307.13;10332535;28;20050;-74
2022/12/12 16:14:25;;;;;;;26.05;11.02;;;;;;;6.70;93.87;100351.53;10327331;28;20181;-76
2022/12/12 16:19:48;;;;;;;16.85;10.70;;;;;;;6.63;94.25;100339.84;10292793;28;20517;-75
2022/12/12 16:24:51;;;;;;;17.80;10.38;;;;;;;6.38;94.74;100307.81;10291497;28;20085;-76
2022/12/12 16:29:52;;;;;;;17.90;10.07;;;;;;;6.35;94.78;100318.66;10290816;28;20485;-77
2022/12/12 16:34:53;;;;;;;16.83;9.88;;;;;;;6.51;94.22;100341.81;10293779;28;20165;-75
2022/12/12 16:39:54;;;;;;;19.85;10.32;;;;;;;6.15;94.55;100294.09;10292641;28;20055;-82
2022/12/12 16:44:55;;;;;;;19.75;10.32;;;;;;;6.44;94.64;100332.81;10273702;28;20061;-80
2022/12/12 16:49:56;;;;;;;23.27;10.27;;;;;;;6.08;94.80;100286.91;10264128;28;20059;-82
2022/12/12 16:54:57;;;;;;;26.38;10.32;;;;;;;6.31;95.39;100317.28;10291949;28;20467;-78
2022/12/12 16:59:58;;;;;;;22.13;10.02;;;;;;;6.35;95.45;100326.56;10291501;28;20078;-80
2022/12/12 17:04:58;;;;;;;22.85;10.50;;;;;;;6.31;95.41;100317.28;10272714;28;20038;-81
2022/12/12 17:09:59;;;;;;;20.60;9.93;;;;;;;6.12;95.51;100288.28;10292539;28;20070;-78
2022/12/12 17:15:00;;;;;;;17.20;10.85;;;;;;;6.25;96.00;100315.22;10291719;28;20069;-78
2022/12/12 17:20:01;;;;;;;16.70;9.93;;;;;;;6.05;95.41;100279.28;10281746;28;20066;-78
2022/12/12 17:25:02;;;;;;;20.30;9.98;;;;;;;6.11;95.84;100291.91;10275277;28;20047;-78
2022/12/12 17:30:04;;;;;;;21.63;9.88;;;;;;;6.09;95.85;100293.84;10285596;28;20038;-78
2022/12/12 17:35:06;;;;;;;18.58;9.60;;;;;;;6.04;95.57;100296.06;10271634;28;20050;-78
2022/12/12 17:40:09;;;;;;;21.02;10.13;;;;;;;5.94;96.09;100280.25;10271363;28;20054;-79
2022/12/12 17:45:10;;;;;;;18.55;9.43;;;;;;;6.17;95.90;100307.16;10283215;28;20043;-78
2022/12/12 17:50:13;;;;;;;22.38;9.75;;;;;;;5.88;96.55;100265.78;10287386;28;20061;-80
2022/12/12 17:55:14;;;;;;;17.90;9.57;;;;;;;6.10;95.98;100306.91;10283748;28;20046;-81
2022/12/12 18:00:15;;;;;;;18.77;9.90;;;;;;;5.59;95.70;100223.59;10273736;28;20102;-80
2022/12/12 18:05:18;;;;;;;16.75;10.35;;;;;;;5.98;95.88;100294.81;10268788;28;20034;-83
2022/12/12 18:10:19;;;;;;;16.33;9.43;;;;;;;5.93;96.29;100289.97;10284716;28;20046;-80
2022/12/12 18:15:19;;;;;;;20.33;9.38;;;;;;;5.88;96.40;100278.97;10288294;28;20050;-79
2022/12/12 18:20:20;;;;;;;18.73;9.10;;;;;;;5.78;97.28;100272.88;10286695;28;20561;-79
2022/12/12 18:25:21;;;;;;;20.60;9.52;;;;;;;5.70;96.56;100255.09;10288469;28;20058;-79
2022/12/12 18:30:22;;;;;;;17.20;9.43;;;;;;;5.89;96.88;100287.69;10285284;28;20573;-79
2022/12/12 18:35:22;;;;;;;20.27;10.35;;;;;;;5.96;97.21;100315.22;10270353;28;20039;-79
2022/12/12 18:40:24;;;;;;;19.27;11.13;;;;;;;5.49;97.96;100243.88;10271763;28;20521;-80
2022/12/12 18:45:24;;;;;;;16.42;10.02;;;;;;;5.85;97.87;100308.25;10292468;28;20078;-77
2022/12/12 18:50:25;;;;;;;19.92;10.02;;;;;;;5.82;98.20;100307.69;10298294;28;20074;-78
2022/12/12 18:55:29;;;;;;;22.15;10.18;;;;;;;5.65;97.64;100274.94;10293883;28;20035;-77
2022/12/12 19:00:30;;;;;;;17.77;9.07;;;;;;;5.41;97.92;100239.25;10280356;28;20047;-78
2022/12/12 19:05:31;;;;;;;17.15;10.45;;;;;;;4.88;97.51;100149.28;10297430;28;20043;-77
2022/12/12 19:10:34;;;;;;;21.63;10.38;;;;;;;5.86;97.80;100307.28;10283194;28;20561;-78
2022/12/12 19:15:35;;;;;;;29.67;10.82;;;;;;;5.53;98.13;100271.59;10273319;28;20042;-76
2022/12/12 19:20:35;;;;;;;21.05;10.50;;;;;;;5.79;98.01;100300.88;10294014;28;20057;-76
2022/12/12 19:25:36;;;;;;;20.52;10.43;;;;;;;5.23;97.89;100210.16;10292630;28;20043;-77
2022/12/12 19:30:40;;;;;;;22.30;10.50;;;;;;;5.78;98.33;100301.88;10291847;28;20047;-76
2022/12/12 19:35:41;;;;;;;17.50;10.40;;;;;;;5.37;97.94;100239.69;10283382;28;20058;-77
2022/12/12 19:40:42;;;;;;;19.42;10.55;;;;;;;5.62;98.17;100283.09;10283464;28;20049;-81
2022/12/12 19:45:42;;;;;;;20.67;10.90;;;;;;;5.71;98.12;100308.63;10295626;28;20062;-81
2022/12/12 19:50:43;;;;;;;23.92;9.95;;;;;;;5.57;99.04;100288.81;10296168;28;20043;-81
2022/12/12 19:55:47;;;;;;;20.02;10.32;;;;;;;5.69;98.68;100323.78;10295041;28;20521;-80
2022/12/12 20:00:49;;;;;;;20.50;11.57;;;;;;;5.66;98.47;100321.41;10294703;28;20038;-80
2022/12/12 20:05:58;;;;;;;20.77;11.00;;;;;;;5.16;98.44;100242.44;10295373;28;20523;-80
2022/12/12 20:11:10;;;;;;;22.15;11.45;;;;;;;5.62;99.30;100323.47;10293998;28;20089;-80
2022/12/12 20:16:13;;;;;;;17.70;9.98;;;;;;;5.13;99.17;100247.97;10286401;28;20506;-80
2022/12/12 20:21:17;;;;;;;22.52;11.60;;;;;;;5.44;99.09;100310.16;10277446;28;20047;-80
2022/12/12 20:26:28;;;;;;;18.20;10.32;;;;;;;5.11;98.62;100234.94;10293931;28;20043;-81
2022/12/12 20:31:33;;;;;;;20.80;10.30;;;;;;;5.67;98.75;100325.72;10276678;28;20046;-81
2022/12/12 20:36:34;;;;;;;19.80;10.38;;;;;;;5.59;98.39;100291.28;10276646;28;20122;-80
2022/12/12 20:41:39;;;;;;;21.30;10.70;;;;;;;5.66;98.95;100305.59;10275942;28;20162;-80
2022/12/12 20:46:42;;;;;;;21.52;10.77;;;;;;;5.63;99.10;100311.16;10292654;28;20094;-80
2022/12/12 20:51:43;;;;;;;21.25;11.43;;;;;;;5.63;99.37;100311.16;10275754;28;21285;-79
2022/12/12 20:56:44;;;;;;;26.02;10.43;;;;;;;5.39;98.74;100269.38;10293964;28;20046;-80
2022/12/12 21:01:45;;;;;;;18.48;10.70;;;;;;;5.54;99.48;100298.78;10292608;28;20043;-79
2022/12/12 21:06:48;;;;;;;21.70;11.13;;;;;;;5.58;99.58;100311.53;10292020;28;20039;-80
2022/12/12 21:11:49;;;;;;;21.92;10.77;;;;;;;5.26;99.34;100267.84;10292719;28;20133;-80
2022/12/12 21:16:49;;;;;;;18.63;10.07;;;;;;;5.51;99.47;100304.34;10292675;28;20129;-79
2022/12/12 21:21:51;;;;;;;17.58;10.38;;;;;;;5.61;99.85;100326.25;10292499;28;20050;-80
2022/12/12 21:26:52;;;;;;;18.65;10.77;;;;;;;5.54;98.98;100304.06;10291794;28;20050;-79
2022/12/12 21:31:53;;;;;;;21.95;10.25;;;;;;;5.66;98.69;100321.41;10274265;28;20129;-79
2022/12/12 21:36:54;;;;;;;23.25;9.95;;;;;;;5.17;98.34;100246.72;10291962;28;20449;-79
2022/12/12 21:41:55;;;;;;;19.88;9.75;;;;;;;5.27;98.37;100263.41;10291856;28;20057;-80
2022/12/12 21:46:56;;;;;;;20.48;10.25;;;;;;;5.36;98.19;100281.00;10292375;28;20082;-80
2022/12/12 21:52:08;;;;;;;19.20;10.45;;;;;;;5.73;98.45;100340.97;10290155;28;20039;-79
2022/12/12 21:57:09;;;;;;;18.98;9.73;;;;;;;5.65;98.05;100322.38;10274877;28;20054;-80
2022/12/12 22:02:12;;;;;;;21.98;10.63;;;;;;;5.66;97.47;100316.97;10291829;28;20529;-80
2022/12/12 22:07:13;;;;;;;26.80;10.02;;;;;;;5.71;97.79;100342.91;10291849;28;20042;-79
2022/12/12 22:12:13;;;;;;;24.73;10.43;;;;;;;5.68;98.47;100330.00;10291846;28;20439;-80
2022/12/12 22:17:14;;;;;;;21.05;9.75;;;;;;;5.70;98.02;100328.91;10292520;28;20049;-80
2022/12/12 22:22:15;;;;;;;21.58;10.48;;;;;;;5.64;97.56;100324.19;10298835;28;20530;-80
2022/12/12 22:27:15;;;;;;;17.42;9.90;;;;;;;5.48;97.61;100305.44;10298764;28;20142;-79
2022/12/12 22:32:16;;;;;;;17.30;9.73;;;;;;;4.87;97.67;100211.59;10298022;28;20134;-80
2022/12/12 22:37:17;;;;;;;16.75;10.13;;;;;;;5.61;97.51;100340.25;10298441;28;20042;-79
2022/12/12 22:42:18;;;;;;;18.52;9.43;;;;;;;5.28;97.93;100274.75;10297621;28;20043;-81
2022/12/12 22:47:19;;;;;;;21.42;10.18;;;;;;;5.16;97.90;100253.78;10298164;28;20145;-80
2022/12/12 22:52:20;;;;;;;19.65;9.40;;;;;;;5.59;97.47;100328.19;10298174;28;20069;-79
2022/12/12 22:57:21;;;;;;;18.20;10.52;;;;;;;5.67;97.93;100341.53;10297773;28;20066;-79
2022/12/12 23:02:21;;;;;;;20.67;10.68;;;;;;;5.61;97.45;100335.00;10297000;28;20058;-79
2022/12/12 23:07:22;;;;;;;20.80;9.77;;;;;;;5.64;97.36;100342.63;10297001;28;20069;-80
2022/12/12 23:12:23;;;;;;;19.70;10.45;;;;;;;5.29;97.39;100282.50;10297660;28;20045;-77
2022/12/12 23:17:24;;;;;;;16.58;9.88;;;;;;;5.01;96.96;100241.97;10296586;28;20046;-80
2022/12/12 23:22:24;;;;;;;19.40;9.95;;;;;;;5.44;96.72;100309.28;10295952;28;20077;-80
2022/12/12 23:27:26;;;;;;;17.98;9.60;;;;;;;5.53;96.54;100328.72;10296562;28;20058;-79